Gateswood, Alabama
Current Conditions -  °F | °C
As of 5:15 AM on Wednesday 26 Nov 2014 (Local Time) from KCQF Reporting Station
Clear Clear  
Wind Chill: 38°   Ceiling: Unl
Heat Index: 41°   Visibility: 10mi
Dew Point: 32°   Wind: 5mph
Humidity: 70%   Direction: 340°NNW
Pressure: 30.18"   Gusts: NA
Location:  30.6097°N, 87.6111°W
Report Text: KCQF 261115Z AUTO 34004KT 10SM CLR 05/00 A3018 RMK AO2
Loading
Personal Weather Stations






























Interactive Weather Map New forecast layout! Learn more

10-Day Weather Forecast

Advertisements
Track Severe Weather on mobile